Terminal Aerodrome Forecast
Issued by NWS

Home | Current Version | Previous Version | Text Only | Print | Product List | Glossary On
Versions: 1 2 3 4 5 6 7 8 9 10 11 12 13 14 15 16 17 18 19 20 21 22 23 24 25
000
FTUS44 KFWD 010152 AAA
TAFFTW
TAF AMD
KFTW 010152Z 0102/0124 20008KT P6SM VCTS SCT050CB BKN250
     FM010300 19008KT P6SM FEW060 SCT250
     FM011600 19016KT P6SM SCT050=

USA.gov is the U.S. government's official web portal to all federal, state and local government web resources and services.